Blue Wave — 5BGC3 — position and weather

sailwx.info

Track history (hours):
 
Tides and Currents Weather Stations Pressure Air Temp Water Temp Dewpoint Dewpoint Depression Visibility Wind Speed Wind Dir Waves Ship Positions

Blue Wave

Last reported at 2018-Jun-19 02:30 UTC. Time now 2018-Jun-20 09:27 UTC.
Position N 36°39' W 000°44'.

Length 229 m; draft 8 m.

Type: Cargo ship. MMSI: 209722000.

Date/timePositionNaut miles runAvg speedWind from/ knotsBaromVisibWave heightAir tempDewpointWater temp
2018-Jun-19 02:30N 36°39' W 000°44'612.7
2018-Jun-19 02:00N 36°40' W 000°36'2412.8
2018-Jun-19 00:08N 36°45' W 000°07'913.0
2018-Jun-18 23:28N 36°47' E 000°04'613.2
2018-Jun-18 23:00N 36°48' E 000°11'712.9
2018-Jun-18 22:29N 36°49' E 000°19'1112.6
2018-Jun-18 21:35N 36°51' E 000°33'512.4
2018-Jun-18 21:12N 36°52' E 000°39'512.6
2018-Jun-18 20:47N 36°53' E 000°46'312.6
2018-Jun-18 20:30N 36°53' E 000°50'612.5
2018-Jun-18 20:00N 36°54' E 000°58'612.4
2018-Jun-18 19:30N 36°55' E 001°05'612.4
2018-Jun-18 19:00N 36°57' E 001°13'612.4
2018-Jun-18 18:30N 36°58' E 001°20'612.5
2018-Jun-18 18:00N 36°59' E 001°28'612.3
2018-Jun-18 17:30N 36°60' E 001°36'612.2
2018-Jun-18 17:00N 37°01' E 001°43'611.9
2018-Jun-18 16:30N 37°02' E 001°51'611.8
2018-Jun-18 16:00N 37°03' E 001°58'611.8
2018-Jun-18 15:30N 37°03' E 002°05'611.8
2018-Jun-18 15:00N 37°04' E 002°13'612.1
2018-Jun-18 14:30N 37°05' E 002°20'712.8
2018-Jun-18 13:55N 37°06' E 002°29'613.1
2018-Jun-18 13:29N 37°07' E 002°36'  
2018-Jun-16 07:46N 37°04' E 015°49'3412.7
2018-Jun-16 05:03N 37°30' E 016°18'313.2
2018-Jun-16 04:48N 37°32' E 016°21'45210.4
2018-Jun-14 09:18N 44°45' E 013°26'311.6
2018-Jun-14 09:00N 44°48' E 013°24'611.8
2018-Jun-14 08:30N 44°53' E 013°19'611.9
2018-Jun-14 08:00N 44°58' E 013°15'611.9
2018-Jun-14 07:30N 45°03' E 013°10'611.8
2018-Jun-14 07:00N 45°08' E 013°06'611.9
2018-Jun-14 06:31N 45°14' E 013°04'611.9
2018-Jun-14 06:01N 45°20' E 013°03'611.9
2018-Jun-14 05:30N 45°25' E 013°06'712.8
2018-Jun-14 05:00N 45°30' E 013°12'612.6
2018-Jun-14 04:31N 45°34' E 013°19'612.9
2018-Jun-14 04:00N 45°36' E 013°28'612.1
2018-Jun-14 03:30N 45°37' E 013°36'511.0
2018-Jun-14 03:01N 45°34' E 013°43'1 1.6
2018-Jun-14 02:30N 45°34' E 013°44'0 0.0
2018-Jun-14 02:00N 45°34' E 013°44'0 0.0
2018-Jun-14 01:30N 45°34' E 013°44'0 0.0
2018-Jun-14 00:57N 45°34' E 013°44'0 0.0
2018-Jun-14 00:30N 45°34' E 013°44'0 0.0
2018-Jun-13 23:57N 45°34' E 013°44'0 0.0
2018-Jun-13 23:30N 45°34' E 013°44'0 0.0
2018-Jun-13 23:00N 45°34' E 013°44'0 0.0
2018-Jun-13 22:30N 45°34' E 013°44'0 0.0
2018-Jun-13 21:57N 45°34' E 013°44'0 0.0
2018-Jun-13 21:24N 45°34' E 013°44'0 0.0
2018-Jun-13 21:00N 45°34' E 013°44'0 0.0
2018-Jun-13 20:30N 45°34' E 013°44'0 0.0
2018-Jun-13 20:00N 45°34' E 013°44'0 0.0
2018-Jun-13 19:30N 45°34' E 013°44'0 0.0
2018-Jun-13 19:00N 45°34' E 013°44'0 0.0
2018-Jun-13 18:30N 45°34' E 013°44'0 0.0
2018-Jun-13 17:57N 45°34' E 013°44'0 0.0
2018-Jun-13 17:24N 45°34' E 013°44'0 0.0
2018-Jun-13 17:00N 45°34' E 013°44'0 0.0
2018-Jun-13 16:30N 45°34' E 013°44'0 0.0
2018-Jun-13 16:00N 45°34' E 013°44'0 0.0
2018-Jun-13 15:27N 45°34' E 013°44'0 0.0
2018-Jun-13 14:57N 45°34' E 013°44'0 0.0
2018-Jun-13 14:30N 45°34' E 013°44'0 0.0
2018-Jun-13 13:48N 45°34' E 013°44'0 0.0
2018-Jun-13 13:30N 45°34' E 013°44'0 0.0
2018-Jun-13 13:00N 45°34' E 013°44'0 0.0
2018-Jun-13 12:15N 45°34' E 013°44'0 0.0
2018-Jun-13 12:00N 45°34' E 013°44'0 0.0
2018-Jun-13 11:27N 45°34' E 013°44'0 0.0
2018-Jun-13 10:57N 45°34' E 013°44'0 0.0
2018-Jun-13 10:30N 45°34' E 013°44'0 0.0
2018-Jun-13 10:00N 45°34' E 013°44'0 0.0
2018-Jun-13 09:30N 45°34' E 013°44'0 0.0
2018-Jun-13 09:00N 45°34' E 013°44'0 0.0
2018-Jun-13 08:30N 45°34' E 013°44'0 0.0
2018-Jun-13 07:57N 45°34' E 013°44'0 0.0
2018-Jun-13 07:30N 45°34' E 013°44'0 0.0
2018-Jun-13 07:00N 45°34' E 013°44'0 0.0
2018-Jun-13 06:30N 45°34' E 013°44'0 0.0
2018-Jun-13 05:45N 45°34' E 013°44'0 0.0
2018-Jun-13 05:30N 45°34' E 013°44'0 0.0
2018-Jun-13 04:57N 45°34' E 013°44'0 0.0
2018-Jun-13 04:24N 45°34' E 013°44'0 0.0
2018-Jun-13 04:00N 45°34' E 013°44'0 0.0
2018-Jun-13 03:27N 45°34' E 013°44'0 0.0
2018-Jun-13 03:00N 45°34' E 013°44'0 0.0
2018-Jun-13 02:21N 45°34' E 013°44'0 0.0
2018-Jun-13 01:57N 45°34' E 013°44'0 0.0
2018-Jun-13 01:30N 45°34' E 013°44'0 0.0
2018-Jun-13 00:57N 45°34' E 013°44'0 0.0
2018-Jun-13 00:30N 45°34' E 013°44'0 0.0
2018-Jun-12 23:54N 45°34' E 013°44'0 0.0
2018-Jun-12 23:27N 45°34' E 013°44'0 0.0
2018-Jun-12 23:00N 45°34' E 013°44'0 0.0
2018-Jun-12 22:30N 45°34' E 013°44'0 0.0
2018-Jun-12 21:57N 45°34' E 013°44'0 0.0
2018-Jun-12 21:27N 45°34' E 013°44'0 0.0
2018-Jun-12 21:00N 45°34' E 013°44'0 0.0
2018-Jun-12 20:30N 45°34' E 013°44'0 0.0
2018-Jun-12 20:00N 45°34' E 013°44'0 0.0
2018-Jun-12 19:30N 45°34' E 013°44'0 0.0
2018-Jun-12 19:00N 45°34' E 013°44'0 0.0
2018-Jun-12 18:27N 45°34' E 013°44'0 0.0
2018-Jun-12 18:00N 45°34' E 013°44'0 0.0
2018-Jun-12 17:30N 45°34' E 013°44'0 0.0
2018-Jun-12 16:54N 45°34' E 013°44'0 0.0
2018-Jun-12 16:30N 45°34' E 013°44'0 0.0
2018-Jun-12 15:54N 45°34' E 013°44'0 0.0
2018-Jun-12 15:30N 45°34' E 013°44'0 0.0
2018-Jun-12 15:00N 45°34' E 013°44'0 0.0
2018-Jun-12 14:27N 45°34' E 013°44'0 0.0
2018-Jun-12 13:57N 45°34' E 013°44'0 0.0
2018-Jun-12 13:30N 45°34' E 013°44'0 0.0
2018-Jun-12 12:54N 45°34' E 013°44'0 0.0
2018-Jun-12 12:27N 45°34' E 013°44'0 0.0
2018-Jun-12 12:00N 45°34' E 013°44'0 0.0
2018-Jun-12 11:30N 45°34' E 013°44'0 0.0
2018-Jun-12 11:00N 45°34' E 013°44'0 0.0
2018-Jun-12 10:27N 45°34' E 013°44'0 0.0
2018-Jun-12 10:00N 45°34' E 013°44'0 0.0
2018-Jun-12 09:30N 45°34' E 013°44'0 0.0
2018-Jun-12 08:57N 45°34' E 013°44'0 0.0
2018-Jun-12 08:21N 45°34' E 013°44'0 0.0
2018-Jun-12 07:57N 45°34' E 013°44'0 0.0
2018-Jun-12 07:30N 45°34' E 013°44'0 0.0
2018-Jun-12 07:00N 45°34' E 013°44'0 0.0
2018-Jun-12 06:24N 45°34' E 013°44'0 0.0
2018-Jun-12 06:00N 45°34' E 013°44'0 0.0
2018-Jun-12 05:30N 45°34' E 013°44'0 0.0
2018-Jun-12 05:00N 45°34' E 013°44'0 0.0
2018-Jun-12 04:30N 45°34' E 013°44'0 0.0
2018-Jun-12 03:57N 45°34' E 013°44'0 0.0
2018-Jun-12 03:30N 45°34' E 013°44'0 0.0
2018-Jun-12 03:00N 45°34' E 013°44'0 0.0
2018-Jun-12 02:27N 45°34' E 013°44'0 0.0
2018-Jun-12 01:54N 45°34' E 013°44'0 0.0
2018-Jun-12 01:21N 45°34' E 013°44'0 0.0
2018-Jun-12 01:00N 45°34' E 013°44'0 0.0
2018-Jun-12 00:30N 45°34' E 013°44'0 0.0
2018-Jun-11 23:54N 45°34' E 013°44'0 0.0
2018-Jun-11 23:27N 45°34' E 013°44'0 0.0
2018-Jun-11 22:57N 45°34' E 013°44'0 0.0
2018-Jun-11 22:30N 45°34' E 013°44'0 0.0
2018-Jun-11 21:57N 45°34' E 013°44'0 0.0
2018-Jun-11 21:24N 45°34' E 013°44'0 0.0
2018-Jun-11 21:00N 45°34' E 013°44'0 0.0
2018-Jun-11 20:30N 45°34' E 013°44'0 0.0
2018-Jun-11 20:00N 45°34' E 013°44'0 0.0
2018-Jun-11 19:24N 45°34' E 013°44'0 0.0
2018-Jun-11 19:00N 45°34' E 013°44'0 0.0
2018-Jun-11 18:30N 45°34' E 013°44'0 0.0
2018-Jun-11 18:00N 45°34' E 013°44'0 0.0
2018-Jun-11 17:27N 45°34' E 013°44'0 0.0
2018-Jun-11 16:51N 45°34' E 013°44'0 0.0
2018-Jun-11 16:27N 45°34' E 013°44'0 0.0
2018-Jun-11 16:00N 45°34' E 013°44'0 0.0
2018-Jun-11 15:30N 45°34' E 013°44'0 0.0
2018-Jun-11 15:00N 45°34' E 013°44'0 0.0
2018-Jun-11 14:27N 45°34' E 013°44'0 0.0
2018-Jun-11 14:00N 45°34' E 013°44'0 0.0
2018-Jun-11 13:24N 45°34' E 013°44'0 0.0
2018-Jun-11 13:00N 45°34' E 013°44'0 0.0
2018-Jun-11 12:27N 45°34' E 013°44'0 0.0
2018-Jun-11 11:57N 45°34' E 013°44'0 0.0
2018-Jun-11 11:30N 45°34' E 013°44'0 0.0
2018-Jun-11 10:54N 45°34' E 013°44'0 0.0
2018-Jun-11 10:27N 45°34' E 013°44'0 0.0
2018-Jun-11 09:51N 45°34' E 013°44'0 0.0
2018-Jun-11 09:18N 45°34' E 013°44'0 0.0
2018-Jun-11 08:54N 45°34' E 013°44'0 0.0
2018-Jun-11 08:30N 45°34' E 013°44'0 0.0
2018-Jun-11 07:54N 45°34' E 013°44'0 0.0
2018-Jun-11 07:30N 45°34' E 013°44'0 0.0
2018-Jun-11 06:54N 45°34' E 013°44'0 0.0
2018-Jun-11 06:30N 45°34' E 013°44'0 0.0
2018-Jun-11 06:00N 45°34' E 013°44'0 0.0
2018-Jun-11 05:30N 45°34' E 013°44'0 0.0
2018-Jun-11 04:57N 45°34' E 013°44'0 0.0
2018-Jun-11 04:30N 45°34' E 013°44'0 0.0
2018-Jun-11 03:57N 45°34' E 013°44'0 0.0
2018-Jun-11 03:30N 45°34' E 013°44'0 0.0
2018-Jun-11 02:57N 45°34' E 013°44'0 0.0
2018-Jun-11 02:27N 45°34' E 013°44'0 0.0
2018-Jun-11 02:00N 45°34' E 013°44'0 0.0
2018-Jun-11 01:30N 45°34' E 013°44'0 0.0
2018-Jun-11 01:00N 45°34' E 013°44'0 0.0
2018-Jun-11 00:30N 45°34' E 013°44'0 0.0
2018-Jun-10 23:54N 45°34' E 013°44'0 0.0
2018-Jun-10 23:27N 45°34' E 013°44'0 0.1
2018-Jun-10 22:54N 45°34' E 013°44'0 0.1
2018-Jun-10 22:30N 45°34' E 013°44'0 0.0
2018-Jun-10 22:00N 45°34' E 013°44'0 0.0
2018-Jun-10 21:30N 45°34' E 013°44'0 0.0
2018-Jun-10 20:57N 45°34' E 013°44'0 0.0
2018-Jun-10 20:27N 45°34' E 013°44'0 0.0
2018-Jun-10 19:54N 45°34' E 013°44'0 0.0
2018-Jun-10 19:30N 45°34' E 013°44'0 0.0
2018-Jun-10 19:00N 45°34' E 013°44'0 0.0
2018-Jun-10 18:30N 45°34' E 013°44'0 0.0
2018-Jun-10 18:00N 45°34' E 013°44'0 0.0
2018-Jun-10 17:30N 45°34' E 013°44'0 0.0
2018-Jun-10 17:00N 45°34' E 013°44'0 0.0
2018-Jun-10 16:30N 45°34' E 013°44'0 0.0
2018-Jun-10 15:57N 45°34' E 013°44'0 0.0
2018-Jun-10 15:30N 45°34' E 013°44'0 0.0
2018-Jun-10 15:00N 45°34' E 013°44'0 0.0
2018-Jun-10 14:30N 45°34' E 013°44'0 0.0
2018-Jun-10 13:30N 45°34' E 013°44'0 0.0
2018-Jun-10 13:00N 45°34' E 013°44'0 0.0
2018-Jun-10 12:30N 45°34' E 013°44'0 0.0
2018-Jun-10 11:57N 45°34' E 013°44'0 0.0
2018-Jun-10 11:18N 45°34' E 013°44'0 0.0
2018-Jun-10 11:00N 45°34' E 013°44'0 0.0
2018-Jun-10 10:30N 45°34' E 013°44'0 0.0
2018-Jun-10 10:00N 45°34' E 013°44'0 0.0
2018-Jun-10 09:27N 45°34' E 013°44'0 0.0
2018-Jun-10 09:00N 45°34' E 013°44'0 0.0
2018-Jun-10 08:12N 45°34' E 013°44'0 0.0
2018-Jun-10 08:00N 45°34' E 013°44'0 0.0
2018-Jun-10 07:30N 45°34' E 013°44'0 0.0
2018-Jun-10 06:57N 45°34' E 013°44'0 0.0
2018-Jun-10 06:30N 45°34' E 013°44'0 0.0
2018-Jun-10 06:00N 45°34' E 013°44'0 0.0
2018-Jun-10 05:30N 45°34' E 013°44'0 0.0
2018-Jun-10 05:00N 45°34' E 013°44'0 0.0
2018-Jun-10 04:30N 45°34' E 013°44'0 0.0
2018-Jun-10 04:00N 45°34' E 013°44'0 0.0
2018-Jun-10 03:30N 45°34' E 013°44'0 0.0
2018-Jun-10 03:00N 45°34' E 013°44'0 0.0
2018-Jun-10 02:30N 45°34' E 013°44'0 0.0
2018-Jun-10 02:00N 45°34' E 013°44'0 0.0
2018-Jun-10 01:18N 45°34' E 013°44'0 0.0
2018-Jun-10 01:00N 45°34' E 013°44'0 0.0
2018-Jun-10 00:30N 45°34' E 013°44'0 0.0
2018-Jun-10 00:00N 45°34' E 013°44'0 0.0
2018-Jun-09 23:30N 45°34' E 013°44'0 0.0
2018-Jun-09 23:00N 45°34' E 013°44'0 0.0
2018-Jun-09 22:24N 45°34' E 013°44'0 0.0
2018-Jun-09 22:00N 45°34' E 013°44'0 0.0
2018-Jun-09 21:24N 45°34' E 013°44'0 0.0
2018-Jun-09 20:55N 45°34' E 013°44'0 0.4
2018-Jun-09 20:30N 45°34' E 013°44'2 5.0
2018-Jun-09 20:00N 45°34' E 013°41'4 8.4
2018-Jun-09 19:30N 45°34' E 013°35'510.8
2018-Jun-09 19:00N 45°32' E 013°28'611.9
2018-Jun-09 18:31N 45°28' E 013°22'612.5
2018-Jun-09 18:00N 45°22' E 013°19'713.0
2018-Jun-09 17:31N 45°16' E 013°18'713.1
2018-Jun-09 17:00N 45°09' E 013°19'713.4
2018-Jun-09 16:30N 45°03' E 013°21'713.5
2018-Jun-09 16:00N 44°56' E 013°24'713.3
2018-Jun-09 15:30N 44°50' E 013°29'1313.1
2018-Jun-09 14:31N 44°39' E 013°39'713.1
2018-Jun-09 14:00N 44°34' E 013°44'1213.3
2018-Jun-09 13:07N 44°24' E 013°53'113.1
2018-Jun-09 13:00N 44°23' E 013°54'  
Track history (hours):
 
Tides and Currents Weather Stations Pressure Air Temp Water Temp Dewpoint Dewpoint Depression Visibility Wind Speed Wind Dir Waves Ship Positions

Blue Wave

Last reported at 2018-Jun-19 02:30 UTC. Time now 2018-Jun-20 09:27 UTC.
Position N 36°39' W 000°44'.

Length 229 m; draft 8 m.

Type: Cargo ship. MMSI: 209722000.

Date/timePositionNaut miles runAvg speedWind from/ knotsBaromVisibWave heightAir tempDewpointWater temp
2018-Jun-19 02:30N 36°39' W 000°44'612.7
2018-Jun-19 02:00N 36°40' W 000°36'2412.8
2018-Jun-19 00:08N 36°45' W 000°07'913.0
2018-Jun-18 23:28N 36°47' E 000°04'613.2
2018-Jun-18 23:00N 36°48' E 000°11'712.9
2018-Jun-18 22:29N 36°49' E 000°19'1112.6
2018-Jun-18 21:35N 36°51' E 000°33'512.4
2018-Jun-18 21:12N 36°52' E 000°39'512.6
2018-Jun-18 20:47N 36°53' E 000°46'312.6
2018-Jun-18 20:30N 36°53' E 000°50'612.5
2018-Jun-18 20:00N 36°54' E 000°58'612.4
2018-Jun-18 19:30N 36°55' E 001°05'612.4
2018-Jun-18 19:00N 36°57' E 001°13'612.4
2018-Jun-18 18:30N 36°58' E 001°20'612.5
2018-Jun-18 18:00N 36°59' E 001°28'612.3
2018-Jun-18 17:30N 36°60' E 001°36'612.2
2018-Jun-18 17:00N 37°01' E 001°43'611.9
2018-Jun-18 16:30N 37°02' E 001°51'611.8
2018-Jun-18 16:00N 37°03' E 001°58'611.8
2018-Jun-18 15:30N 37°03' E 002°05'611.8
2018-Jun-18 15:00N 37°04' E 002°13'612.1
2018-Jun-18 14:30N 37°05' E 002°20'712.8
2018-Jun-18 13:55N 37°06' E 002°29'613.1
2018-Jun-18 13:29N 37°07' E 002°36'  
2018-Jun-16 07:46N 37°04' E 015°49'3412.7
2018-Jun-16 05:03N 37°30' E 016°18'313.2
2018-Jun-16 04:48N 37°32' E 016°21'45210.4
2018-Jun-14 09:18N 44°45' E 013°26'311.6
2018-Jun-14 09:00N 44°48' E 013°24'611.8
2018-Jun-14 08:30N 44°53' E 013°19'611.9
2018-Jun-14 08:00N 44°58' E 013°15'611.9
2018-Jun-14 07:30N 45°03' E 013°10'611.8
2018-Jun-14 07:00N 45°08' E 013°06'611.9
2018-Jun-14 06:31N 45°14' E 013°04'611.9
2018-Jun-14 06:01N 45°20' E 013°03'611.9
2018-Jun-14 05:30N 45°25' E 013°06'712.8
2018-Jun-14 05:00N 45°30' E 013°12'612.6
2018-Jun-14 04:31N 45°34' E 013°19'612.9
2018-Jun-14 04:00N 45°36' E 013°28'612.1
2018-Jun-14 03:30N 45°37' E 013°36'511.0
2018-Jun-14 03:01N 45°34' E 013°43'1 1.6
2018-Jun-14 02:30N 45°34' E 013°44'0 0.0
2018-Jun-14 02:00N 45°34' E 013°44'0 0.0
2018-Jun-14 01:30N 45°34' E 013°44'0 0.0
2018-Jun-14 00:57N 45°34' E 013°44'0 0.0
2018-Jun-14 00:30N 45°34' E 013°44'0 0.0
2018-Jun-13 23:57N 45°34' E 013°44'0 0.0
2018-Jun-13 23:30N 45°34' E 013°44'0 0.0
2018-Jun-13 23:00N 45°34' E 013°44'0 0.0
2018-Jun-13 22:30N 45°34' E 013°44'0 0.0
2018-Jun-13 21:57N 45°34' E 013°44'0 0.0
2018-Jun-13 21:24N 45°34' E 013°44'0 0.0
2018-Jun-13 21:00N 45°34' E 013°44'0 0.0
2018-Jun-13 20:30N 45°34' E 013°44'0 0.0
2018-Jun-13 20:00N 45°34' E 013°44'0 0.0
2018-Jun-13 19:30N 45°34' E 013°44'0 0.0
2018-Jun-13 19:00N 45°34' E 013°44'0 0.0
2018-Jun-13 18:30N 45°34' E 013°44'0 0.0
2018-Jun-13 17:57N 45°34' E 013°44'0 0.0
2018-Jun-13 17:24N 45°34' E 013°44'0 0.0
2018-Jun-13 17:00N 45°34' E 013°44'0 0.0
2018-Jun-13 16:30N 45°34' E 013°44'0 0.0
2018-Jun-13 16:00N 45°34' E 013°44'0 0.0
2018-Jun-13 15:27N 45°34' E 013°44'0 0.0
2018-Jun-13 14:57N 45°34' E 013°44'0 0.0
2018-Jun-13 14:30N 45°34' E 013°44'0 0.0
2018-Jun-13 13:48N 45°34' E 013°44'0 0.0
2018-Jun-13 13:30N 45°34' E 013°44'0 0.0
2018-Jun-13 13:00N 45°34' E 013°44'0 0.0
2018-Jun-13 12:15N 45°34' E 013°44'0 0.0
2018-Jun-13 12:00N 45°34' E 013°44'0 0.0
2018-Jun-13 11:27N 45°34' E 013°44'0 0.0
2018-Jun-13 10:57N 45°34' E 013°44'0 0.0
2018-Jun-13 10:30N 45°34' E 013°44'0 0.0
2018-Jun-13 10:00N 45°34' E 013°44'0 0.0
2018-Jun-13 09:30N 45°34' E 013°44'0 0.0
2018-Jun-13 09:00N 45°34' E 013°44'0 0.0
2018-Jun-13 08:30N 45°34' E 013°44'0 0.0
2018-Jun-13 07:57N 45°34' E 013°44'0 0.0
2018-Jun-13 07:30N 45°34' E 013°44'0 0.0
2018-Jun-13 07:00N 45°34' E 013°44'0 0.0
2018-Jun-13 06:30N 45°34' E 013°44'0 0.0
2018-Jun-13 05:45N 45°34' E 013°44'0 0.0
2018-Jun-13 05:30N 45°34' E 013°44'0 0.0
2018-Jun-13 04:57N 45°34' E 013°44'0 0.0
2018-Jun-13 04:24N 45°34' E 013°44'0 0.0
2018-Jun-13 04:00N 45°34' E 013°44'0 0.0
2018-Jun-13 03:27N 45°34' E 013°44'0 0.0
2018-Jun-13 03:00N 45°34' E 013°44'0 0.0
2018-Jun-13 02:21N 45°34' E 013°44'0 0.0
2018-Jun-13 01:57N 45°34' E 013°44'0 0.0
2018-Jun-13 01:30N 45°34' E 013°44'0 0.0
2018-Jun-13 00:57N 45°34' E 013°44'0 0.0
2018-Jun-13 00:30N 45°34' E 013°44'0 0.0
2018-Jun-12 23:54N 45°34' E 013°44'0 0.0
2018-Jun-12 23:27N 45°34' E 013°44'0 0.0
2018-Jun-12 23:00N 45°34' E 013°44'0 0.0
2018-Jun-12 22:30N 45°34' E 013°44'0 0.0
2018-Jun-12 21:57N 45°34' E 013°44'0 0.0
2018-Jun-12 21:27N 45°34' E 013°44'0 0.0
2018-Jun-12 21:00N 45°34' E 013°44'0 0.0
2018-Jun-12 20:30N 45°34' E 013°44'0 0.0
2018-Jun-12 20:00N 45°34' E 013°44'0 0.0
2018-Jun-12 19:30N 45°34' E 013°44'0 0.0
2018-Jun-12 19:00N 45°34' E 013°44'0 0.0
2018-Jun-12 18:27N 45°34' E 013°44'0 0.0
2018-Jun-12 18:00N 45°34' E 013°44'0 0.0
2018-Jun-12 17:30N 45°34' E 013°44'0 0.0
2018-Jun-12 16:54N 45°34' E 013°44'0 0.0
2018-Jun-12 16:30N 45°34' E 013°44'0 0.0
2018-Jun-12 15:54N 45°34' E 013°44'0 0.0
2018-Jun-12 15:30N 45°34' E 013°44'0 0.0
2018-Jun-12 15:00N 45°34' E 013°44'0 0.0
2018-Jun-12 14:27N 45°34' E 013°44'0 0.0
2018-Jun-12 13:57N 45°34' E 013°44'0 0.0
2018-Jun-12 13:30N 45°34' E 013°44'0 0.0
2018-Jun-12 12:54N 45°34' E 013°44'0 0.0
2018-Jun-12 12:27N 45°34' E 013°44'0 0.0
2018-Jun-12 12:00N 45°34' E 013°44'0 0.0
2018-Jun-12 11:30N 45°34' E 013°44'0 0.0
2018-Jun-12 11:00N 45°34' E 013°44'0 0.0
2018-Jun-12 10:27N 45°34' E 013°44'0 0.0
2018-Jun-12 10:00N 45°34' E 013°44'0 0.0
2018-Jun-12 09:30N 45°34' E 013°44'0 0.0
2018-Jun-12 08:57N 45°34' E 013°44'0 0.0
2018-Jun-12 08:21N 45°34' E 013°44'0 0.0
2018-Jun-12 07:57N 45°34' E 013°44'0 0.0
2018-Jun-12 07:30N 45°34' E 013°44'0 0.0
2018-Jun-12 07:00N 45°34' E 013°44'0 0.0
2018-Jun-12 06:24N 45°34' E 013°44'0 0.0
2018-Jun-12 06:00N 45°34' E 013°44'0 0.0
2018-Jun-12 05:30N 45°34' E 013°44'0 0.0
2018-Jun-12 05:00N 45°34' E 013°44'0 0.0
2018-Jun-12 04:30N 45°34' E 013°44'0 0.0
2018-Jun-12 03:57N 45°34' E 013°44'0 0.0
2018-Jun-12 03:30N 45°34' E 013°44'0 0.0
2018-Jun-12 03:00N 45°34' E 013°44'0 0.0
2018-Jun-12 02:27N 45°34' E 013°44'0 0.0
2018-Jun-12 01:54N 45°34' E 013°44'0 0.0
2018-Jun-12 01:21N 45°34' E 013°44'0 0.0
2018-Jun-12 01:00N 45°34' E 013°44'0 0.0
2018-Jun-12 00:30N 45°34' E 013°44'0 0.0
2018-Jun-11 23:54N 45°34' E 013°44'0 0.0
2018-Jun-11 23:27N 45°34' E 013°44'0 0.0
2018-Jun-11 22:57N 45°34' E 013°44'0 0.0
2018-Jun-11 22:30N 45°34' E 013°44'0 0.0
2018-Jun-11 21:57N 45°34' E 013°44'0 0.0
2018-Jun-11 21:24N 45°34' E 013°44'0 0.0
2018-Jun-11 21:00N 45°34' E 013°44'0 0.0
2018-Jun-11 20:30N 45°34' E 013°44'0 0.0
2018-Jun-11 20:00N 45°34' E 013°44'0 0.0
2018-Jun-11 19:24N 45°34' E 013°44'0 0.0
2018-Jun-11 19:00N 45°34' E 013°44'0 0.0
2018-Jun-11 18:30N 45°34' E 013°44'0 0.0
2018-Jun-11 18:00N 45°34' E 013°44'0 0.0
2018-Jun-11 17:27N 45°34' E 013°44'0 0.0
2018-Jun-11 16:51N 45°34' E 013°44'0 0.0
2018-Jun-11 16:27N 45°34' E 013°44'0 0.0
2018-Jun-11 16:00N 45°34' E 013°44'0 0.0
2018-Jun-11 15:30N 45°34' E 013°44'0 0.0
2018-Jun-11 15:00N 45°34' E 013°44'0 0.0
2018-Jun-11 14:27N 45°34' E 013°44'0 0.0
2018-Jun-11 14:00N 45°34' E 013°44'0 0.0
2018-Jun-11 13:24N 45°34' E 013°44'0 0.0
2018-Jun-11 13:00N 45°34' E 013°44'0 0.0
2018-Jun-11 12:27N 45°34' E 013°44'0 0.0
2018-Jun-11 11:57N 45°34' E 013°44'0 0.0
2018-Jun-11 11:30N 45°34' E 013°44'0 0.0
2018-Jun-11 10:54N 45°34' E 013°44'0 0.0
2018-Jun-11 10:27N 45°34' E 013°44'0 0.0
2018-Jun-11 09:51N 45°34' E 013°44'0 0.0
2018-Jun-11 09:18N 45°34' E 013°44'0 0.0
2018-Jun-11 08:54N 45°34' E 013°44'0 0.0
2018-Jun-11 08:30N 45°34' E 013°44'0 0.0
2018-Jun-11 07:54N 45°34' E 013°44'0 0.0
2018-Jun-11 07:30N 45°34' E 013°44'0 0.0
2018-Jun-11 06:54N 45°34' E 013°44'0 0.0
2018-Jun-11 06:30N 45°34' E 013°44'0 0.0
2018-Jun-11 06:00N 45°34' E 013°44'0 0.0
2018-Jun-11 05:30N 45°34' E 013°44'0 0.0
2018-Jun-11 04:57N 45°34' E 013°44'0 0.0
2018-Jun-11 04:30N 45°34' E 013°44'0 0.0
2018-Jun-11 03:57N 45°34' E 013°44'0 0.0
2018-Jun-11 03:30N 45°34' E 013°44'0 0.0
2018-Jun-11 02:57N 45°34' E 013°44'0 0.0
2018-Jun-11 02:27N 45°34' E 013°44'0 0.0
2018-Jun-11 02:00N 45°34' E 013°44'0 0.0
2018-Jun-11 01:30N 45°34' E 013°44'0 0.0
2018-Jun-11 01:00N 45°34' E 013°44'0 0.0
2018-Jun-11 00:30N 45°34' E 013°44'0 0.0
2018-Jun-10 23:54N 45°34' E 013°44'0 0.0
2018-Jun-10 23:27N 45°34' E 013°44'0 0.1
2018-Jun-10 22:54N 45°34' E 013°44'0 0.1
2018-Jun-10 22:30N 45°34' E 013°44'0 0.0
2018-Jun-10 22:00N 45°34' E 013°44'0 0.0
2018-Jun-10 21:30N 45°34' E 013°44'0 0.0
2018-Jun-10 20:57N 45°34' E 013°44'0 0.0
2018-Jun-10 20:27N 45°34' E 013°44'0 0.0
2018-Jun-10 19:54N 45°34' E 013°44'0 0.0
2018-Jun-10 19:30N 45°34' E 013°44'0 0.0
2018-Jun-10 19:00N 45°34' E 013°44'0 0.0
2018-Jun-10 18:30N 45°34' E 013°44'0 0.0
2018-Jun-10 18:00N 45°34' E 013°44'0 0.0
2018-Jun-10 17:30N 45°34' E 013°44'0 0.0
2018-Jun-10 17:00N 45°34' E 013°44'0 0.0
2018-Jun-10 16:30N 45°34' E 013°44'0 0.0
2018-Jun-10 15:57N 45°34' E 013°44'0 0.0
2018-Jun-10 15:30N 45°34' E 013°44'0 0.0
2018-Jun-10 15:00N 45°34' E 013°44'0 0.0
2018-Jun-10 14:30N 45°34' E 013°44'0 0.0
2018-Jun-10 13:30N 45°34' E 013°44'0 0.0
2018-Jun-10 13:00N 45°34' E 013°44'0 0.0
2018-Jun-10 12:30N 45°34' E 013°44'0 0.0
2018-Jun-10 11:57N 45°34' E 013°44'0 0.0
2018-Jun-10 11:18N 45°34' E 013°44'0 0.0
2018-Jun-10 11:00N 45°34' E 013°44'0 0.0
2018-Jun-10 10:30N 45°34' E 013°44'0 0.0
2018-Jun-10 10:00N 45°34' E 013°44'0 0.0
2018-Jun-10 09:27N 45°34' E 013°44'0 0.0
2018-Jun-10 09:00N 45°34' E 013°44'0 0.0
2018-Jun-10 08:12N 45°34' E 013°44'0 0.0
2018-Jun-10 08:00N 45°34' E 013°44'0 0.0
2018-Jun-10 07:30N 45°34' E 013°44'0 0.0
2018-Jun-10 06:57N 45°34' E 013°44'0 0.0
2018-Jun-10 06:30N 45°34' E 013°44'0 0.0
2018-Jun-10 06:00N 45°34' E 013°44'0 0.0
2018-Jun-10 05:30N 45°34' E 013°44'0 0.0
2018-Jun-10 05:00N 45°34' E 013°44'0 0.0
2018-Jun-10 04:30N 45°34' E 013°44'0 0.0
2018-Jun-10 04:00N 45°34' E 013°44'0 0.0
2018-Jun-10 03:30N 45°34' E 013°44'0 0.0
2018-Jun-10 03:00N 45°34' E 013°44'0 0.0
2018-Jun-10 02:30N 45°34' E 013°44'0 0.0
2018-Jun-10 02:00N 45°34' E 013°44'0 0.0
2018-Jun-10 01:18N 45°34' E 013°44'0 0.0
2018-Jun-10 01:00N 45°34' E 013°44'0 0.0
2018-Jun-10 00:30N 45°34' E 013°44'0 0.0
2018-Jun-10 00:00N 45°34' E 013°44'0 0.0
2018-Jun-09 23:30N 45°34' E 013°44'0 0.0
2018-Jun-09 23:00N 45°34' E 013°44'0 0.0
2018-Jun-09 22:24N 45°34' E 013°44'0 0.0
2018-Jun-09 22:00N 45°34' E 013°44'0 0.0
2018-Jun-09 21:24N 45°34' E 013°44'0 0.0
2018-Jun-09 20:55N 45°34' E 013°44'0 0.4
2018-Jun-09 20:30N 45°34' E 013°44'2 5.0
2018-Jun-09 20:00N 45°34' E 013°41'4 8.4
2018-Jun-09 19:30N 45°34' E 013°35'510.8
2018-Jun-09 19:00N 45°32' E 013°28'611.9
2018-Jun-09 18:31N 45°28' E 013°22'612.5
2018-Jun-09 18:00N 45°22' E 013°19'713.0
2018-Jun-09 17:31N 45°16' E 013°18'713.1
2018-Jun-09 17:00N 45°09' E 013°19'713.4
2018-Jun-09 16:30N 45°03' E 013°21'713.5
2018-Jun-09 16:00N 44°56' E 013°24'713.3
2018-Jun-09 15:30N 44°50' E 013°29'1313.1
2018-Jun-09 14:31N 44°39' E 013°39'713.1
2018-Jun-09 14:00N 44°34' E 013°44'1213.3
2018-Jun-09 13:07N 44°24' E 013°53'113.1
2018-Jun-09 13:00N 44°23' E 013°54'  

Dump ship's entire track history